Bostic, North Carolina
Current Conditions -  °F | °C
As of 2:55 PM on Monday 22 Dec 2014 (Local Time) from KFQD Reporting Station
Overcast Overcast  
Wind Chill: 36°   Ceiling: 600
Heat Index: 41°   Visibility: 7mi
Dew Point: 39°   Wind: 7mph
Humidity: 93%   Direction: 40°NE
Pressure: 30.02"   Gusts: NA
Location:  35.36°N, 81.84°W
Report Text: KFQD 221955Z AUTO 04006KT 7SM BKN006 OVC011 05/04 A3002 RMK AO2 T00490039
Loading
Personal Weather Stations






























Interactive Weather Map New forecast layout! Learn more

10-Day Weather Forecast

Advertisements
Track Severe Weather on mobile